Time;durP1;ratioP1;P1;durP2;ratioP2;P2;SDS_P1;SDS_P2;PMS_P1;PMS_P2;Temp;Humidity;BMP_temperature;BMP_pressure;BME280_temperature;BME280_humidity;BME280_pressure;Samples;Min_cycle;Max_cycle;Signal;HPM_P1;HPM_P2
2022/04/21 00:00:20;;;;;;;35.47;27.08;;;205.20;1996.80;;;;;;4861192;29;20057;-68
2022/04/21 00:02:46;;;;;;;37.13;27.58;;;205.20;1945.60;;;;;;4861672;29;20037;-68
2022/04/21 00:05:12;;;;;;;35.70;26.48;;;205.20;1971.20;;;;;;4861936;29;20034;-67
2022/04/21 00:07:39;;;;;;;40.30;26.70;;;205.20;1971.20;;;;;;4861937;29;20089;-68
2022/04/21 00:10:07;;;;;;;35.08;27.50;;;205.20;1945.60;;;;;;4860970;29;20041;-68
2022/04/21 00:12:34;;;;;;;35.03;26.10;;;205.20;1996.80;;;;;;4861470;29;20135;-68
2022/04/21 00:15:00;;;;;;;37.38;26.30;;;205.10;1945.60;;;;;;4840675;29;20042;-69
2022/04/21 00:17:26;;;;;;;35.05;25.48;;;205.10;1971.20;;;;;;4848131;29;20045;-67
2022/04/21 00:19:52;;;;;;;34.63;24.10;;;205.10;1996.80;;;;;;4851452;29;20059;-66
2022/04/21 00:25:02;;;;;;;33.85;25.30;;;205.20;1971.20;;;;;;4843242;29;20045;-67
2022/04/21 00:27:28;;;;;;;32.70;26.00;;;205.10;1971.20;;;;;;4826875;29;20038;-68
2022/04/21 00:29:55;;;;;;;39.05;28.25;;;205.10;1971.20;;;;;;4842930;29;20036;-68
2022/04/21 00:32:21;;;;;;;33.30;25.77;;;205.10;1996.80;;;;;;4842607;29;20049;-68
2022/04/21 00:34:46;;;;;;;33.33;24.98;;;205.10;1945.60;;;;;;4842957;29;20030;-68
2022/04/21 00:37:12;;;;;;;34.97;26.30;;;205.10;1996.80;;;;;;4843046;29;20034;-67
2022/04/21 00:39:38;;;;;;;35.65;26.45;;;205.00;1996.80;;;;;;4842874;29;20030;-65
2022/04/21 00:42:04;;;;;;;33.20;26.25;;;205.00;1971.20;;;;;;4842999;29;20041;-68
2022/04/21 00:44:30;;;;;;;33.55;26.73;;;205.00;2022.40;;;;;;4843179;29;20086;-68
2022/04/21 00:47:00;;;;;;;34.95;27.13;;;205.00;1996.80;;;;;;4842941;29;20472;-67
2022/04/21 00:49:27;;;;;;;33.65;26.08;;;205.00;1996.80;;;;;;4842719;29;20033;-67
2022/04/21 00:51:54;;;;;;;32.42;25.15;;;205.00;2048.00;;;;;;4842967;29;20405;-68
2022/04/21 00:54:20;;;;;;;35.88;27.73;;;204.90;1996.80;;;;;;4842877;29;20105;-69
2022/04/21 00:56:47;;;;;;;34.63;26.98;;;204.90;2022.40;;;;;;4842217;29;20116;-67
2022/04/21 00:59:13;;;;;;;40.25;28.55;;;204.90;2022.40;;;;;;4842899;29;20385;-68
2022/04/21 01:04:25;;;;;;;40.20;28.50;;;204.80;2073.60;;;;;;4842992;29;20063;-69
2022/04/21 01:06:55;;;;;;;37.45;28.88;;;204.80;1996.80;;;;;;4842792;29;20366;-69
2022/04/21 01:09:21;;;;;;;44.65;32.72;;;204.90;2022.40;;;;;;4845979;29;20030;-70
2022/04/21 01:11:50;;;;;;;42.90;31.42;;;204.90;2048.00;;;;;;4846693;29;20040;-69
2022/04/21 01:14:17;;;;;;;40.80;32.58;;;204.80;1996.80;;;;;;4846076;29;20082;-67
2022/04/21 01:16:43;;;;;;;39.13;31.95;;;204.90;2022.40;;;;;;4846366;29;20382;-69
2022/04/21 01:19:09;;;;;;;54.35;37.60;;;204.80;2022.40;;;;;;4829550;29;20061;-66
2022/04/21 01:21:35;;;;;;;61.28;43.75;;;204.80;1996.80;;;;;;4845924;29;20033;-68
2022/04/21 01:24:01;;;;;;;58.70;42.53;;;204.80;2048.00;;;;;;4846097;29;20033;-69
2022/04/21 01:26:35;;;;;;;62.15;43.63;;;204.80;1996.80;;;;;;4845803;29;20026;-69
2022/04/21 01:29:03;;;;;;;57.70;40.30;;;180.10;2022.40;;;;;;4846315;29;20070;-68
2022/04/21 01:31:29;;;;;;;51.00;36.72;;;180.10;2022.40;;;;;;4845800;29;20417;-68
2022/04/21 01:33:55;;;;;;;50.17;35.40;;;180.00;2022.40;;;;;;4845815;29;20034;-69
2022/04/21 01:36:21;;;;;;;46.53;32.80;;;180.00;2073.60;;;;;;4844798;29;20033;-69
2022/04/21 01:41:31;;;;;;;42.27;31.30;;;180.00;2048.00;;;;;;4846066;29;20045;-69
2022/04/21 01:43:57;;;;;;;40.88;30.63;;;179.90;2048.00;;;;;;4828867;29;20038;-68
2022/04/21 01:46:22;;;;;;;47.05;31.25;;;179.90;2022.40;;;;;;4845839;29;20026;-69
2022/04/21 01:48:48;;;;;;;39.08;29.90;;;179.80;2073.60;;;;;;4845773;29;20026;-69
2022/04/21 01:51:14;;;;;;;36.08;28.50;;;179.80;2022.40;;;;;;4828677;29;20389;-69
2022/04/21 01:53:40;;;;;;;39.80;28.98;;;179.80;2048.00;;;;;;4845550;29;20098;-68
2022/04/21 01:56:05;;;;;;;46.28;30.30;;;179.80;2073.60;;;;;;4828424;29;20484;-68
2022/04/21 01:58:31;;;;;;;45.80;32.47;;;179.70;2048.00;;;;;;4845088;29;20049;-69
2022/04/21 02:00:57;;;;;;;40.75;28.23;;;179.70;2099.20;;;;;;4828198;29;20465;-70
2022/04/21 02:03:22;;;;;;;41.80;30.17;;;179.70;2048.00;;;;;;4845535;29;20056;-69
2022/04/21 02:05:48;;;;;;;39.08;29.60;;;179.70;2073.60;;;;;;4845132;29;20029;-69
2022/04/21 02:08:15;;;;;;;40.10;29.55;;;179.60;2073.60;;;;;;4845276;29;20042;-70
2022/04/21 02:10:41;;;;;;;41.63;29.50;;;179.60;2073.60;;;;;;4828158;29;20038;-70
2022/04/21 02:13:07;;;;;;;41.63;29.50;;;179.60;2099.20;;;;;;4845245;29;20030;-70
2022/04/21 02:15:32;;;;;;;39.60;30.50;;;179.60;2048.00;;;;;;4845389;29;20086;-70
2022/04/21 02:18:01;;;;;;;37.97;28.75;;;179.50;2073.60;;;;;;4827966;29;20102;-71
2022/04/21 02:20:27;;;;;;;39.00;29.08;;;179.50;2099.20;;;;;;4844321;29;20516;-67
2022/04/21 02:22:53;;;;;;;35.08;28.30;;;179.50;2073.60;;;;;;4844699;29;20042;-70
2022/04/21 02:25:19;;;;;;;36.72;28.40;;;179.50;2124.80;;;;;;4845237;29;20029;-70
2022/04/21 02:27:46;;;;;;;39.97;30.33;;;179.50;2073.60;;;;;;4845017;29;20038;-71
2022/04/21 02:30:14;;;;;;;38.63;30.13;;;179.50;2124.80;;;;;;4827837;29;20046;-71
2022/04/21 02:32:40;;;;;;;42.75;31.73;;;179.40;2099.20;;;;;;4845021;29;20038;-70
2022/04/21 02:35:07;;;;;;;46.60;32.38;;;179.50;2099.20;;;;;;4844991;29;20377;-71
2022/04/21 02:37:41;;;;;;;45.65;31.38;;;179.50;2150.40;;;;;;4844587;29;20504;-71
2022/04/21 02:40:09;;;;;;;47.75;35.88;;;179.50;2073.60;;;;;;4844801;29;20037;-69
2022/04/21 02:42:35;;;;;;;50.30;33.25;;;179.50;2201.60;;;;;;4844385;29;20073;-70
2022/04/21 02:45:01;;;;;;;47.35;33.92;;;179.50;2124.80;;;;;;4844944;29;20109;-71
2022/04/21 02:47:28;;;;;;;46.08;34.03;;;179.50;2150.40;;;;;;4844782;29;20034;-70
2022/04/21 02:49:54;;;;;;;42.95;33.65;;;179.50;2176.00;;;;;;4843963;29;20113;-70
2022/04/21 02:52:21;;;;;;;46.58;34.08;;;179.50;2150.40;;;;;;4844601;29;20038;-70
2022/04/21 02:57:32;;;;;;;46.97;33.37;;;179.50;2124.80;;;;;;4844498;29;20147;-71
2022/04/21 03:00:01;;;;;;;44.42;32.40;;;179.50;2150.40;;;;;;4827918;29;20038;-71
2022/04/21 03:02:27;;;;;;;45.40;32.10;;;179.60;2150.40;;;;;;4844372;29;20048;-70
2022/04/21 03:04:54;;;;;;;47.55;35.60;;;179.60;2124.80;;;;;;4844404;29;20105;-72
2022/04/21 03:07:21;;;;;;;47.38;34.83;;;179.60;2201.60;;;;;;4844260;29;20034;-70
2022/04/21 03:09:47;;;;;;;46.47;35.30;;;179.60;2124.80;;;;;;4843995;29;20037;-71
2022/04/21 03:12:13;;;;;;;44.53;33.50;;;179.60;2176.00;;;;;;4844051;29;20045;-72
2022/04/21 03:14:41;;;;;;;48.38;37.55;;;179.70;2176.00;;;;;;4844187;29;20030;-69
2022/04/21 03:17:09;;;;;;;48.65;37.00;;;179.70;2150.40;;;;;;4843763;29;20038;-72
2022/04/21 03:19:36;;;;;;;43.03;33.20;;;179.70;2201.60;;;;;;4844044;29;20040;-72
2022/04/21 03:24:47;;;;;;;51.05;34.42;;;179.80;2176.00;;;;;;4844481;29;20044;-72
2022/04/21 03:27:12;;;;;;;47.72;35.13;;;179.80;2176.00;;;;;;4844099;29;20113;-64
2022/04/21 03:29:39;;;;;;;62.97;41.40;;;179.90;2176.00;;;;;;4843926;29;20442;-73
2022/04/21 03:32:09;;;;;;;55.20;41.72;;;179.90;2201.60;;;;;;4843553;29;20141;-70
2022/04/21 03:34:37;;;;;;;52.13;37.50;;;180.00;2176.00;;;;;;4843985;29;20026;-73
2022/04/21 03:37:04;;;;;;;47.13;35.08;;;180.00;2150.40;;;;;;4844213;29;20025;-72
2022/04/21 03:39:30;;;;;;;45.08;33.95;;;180.00;2150.40;;;;;;4844193;29;20057;-73
2022/04/21 03:41:56;;;;;;;52.70;34.42;;;180.00;2150.40;;;;;;4843614;29;20065;-72
2022/04/21 03:44:22;;;;;;;51.45;35.75;;;180.00;2150.40;;;;;;4843128;29;20041;-73
2022/04/21 03:46:49;;;;;;;47.55;35.38;;;180.00;2150.40;;;;;;4843826;29;20030;-72
2022/04/21 03:49:14;;;;;;;50.85;37.25;;;180.00;2150.40;;;;;;4843845;29;20049;-73
2022/04/21 03:51:40;;;;;;;49.47;39.08;;;180.00;2124.80;;;;;;4826514;29;20091;-72
2022/04/21 03:54:06;;;;;;;61.45;44.08;;;180.00;2124.80;;;;;;4843586;29;20404;-73
2022/04/21 03:56:33;;;;;;;50.00;39.88;;;180.00;2124.80;;;;;;4843454;29;20038;-72
2022/04/21 03:58:59;;;;;;;51.15;39.63;;;180.00;2124.80;;;;;;4843610;29;20108;-73
2022/04/21 04:01:25;;;;;;;50.42;37.92;;;180.00;2124.80;;;;;;4843426;29;20026;-71
2022/04/21 04:03:51;;;;;;;50.25;34.67;;;179.90;2150.40;;;;;;4843316;29;20034;-73
2022/04/21 04:11:46;;;;;;;;;;;179.80;2124.80;;;;;;4843753;29;20079;-73
2022/04/21 04:14:12;;;;;;;52.15;32.75;;;179.80;2124.80;;;;;;4843280;29;19912;-74
2022/04/21 04:16:38;;;;;;;51.95;35.63;;;179.70;2150.40;;;;;;4826476;29;20129;-74
2022/04/21 04:19:05;;;;;;;46.03;35.25;;;179.70;2150.40;;;;;;4843303;29;20048;-74
2022/04/21 04:21:37;;;;;;;52.47;36.65;;;179.70;2150.40;;;;;;4826636;29;20038;-74
2022/04/21 04:24:03;;;;;;;59.38;41.47;;;179.70;2150.40;;;;;;4842916;29;20037;-73
2022/04/21 04:26:31;;;;;;;57.35;37.45;;;179.70;2150.40;;;;;;4843191;29;20026;-73
2022/04/21 04:28:57;;;;;;;57.45;36.88;;;179.60;2150.40;;;;;;4842954;29;20034;-74
2022/04/21 04:31:22;;;;;;;53.53;37.22;;;179.60;2150.40;;;;;;4842742;29;20061;-71
2022/04/21 04:33:48;;;;;;;51.45;37.60;;;179.60;2150.40;;;;;;4842802;29;20034;-73
2022/04/21 04:36:16;;;;;;;59.17;40.25;;;179.60;2150.40;;;;;;4843083;29;20377;-73
2022/04/21 04:38:45;;;;;;;89.28;52.65;;;179.60;2150.40;;;;;;4843130;29;20041;-74
2022/04/21 04:43:55;;;;;;;97.30;63.03;;;179.60;2150.40;;;;;;4842510;29;20073;-74
2022/04/21 04:46:37;;;;;;;106.75;67.15;;;179.60;2150.40;;;;;;4842618;29;20065;-73
2022/04/21 04:49:11;;;;;;;72.63;52.30;;;179.50;2150.40;;;;;;4842989;29;20034;-74
2022/04/21 04:51:41;;;;;;;65.07;48.17;;;179.50;2150.40;;;;;;4837152;29;20048;-75
2022/04/21 04:54:08;;;;;;;70.00;52.05;;;179.50;2150.40;;;;;;4843042;29;20053;-74
2022/04/21 04:56:35;;;;;;;67.50;50.90;;;179.50;2150.40;;;;;;4842495;29;20038;-73
2022/04/21 04:59:01;;;;;;;68.38;49.17;;;179.50;2150.40;;;;;;4842791;29;20064;-73
2022/04/21 05:01:35;;;;;;;64.43;46.92;;;179.50;2150.40;;;;;;4826482;29;20054;-74
2022/04/21 05:04:21;;;;;;;55.67;40.90;;;179.60;2176.00;;;;;;4842938;29;20056;-74
2022/04/21 05:06:49;;;;;;;58.42;41.20;;;179.60;2176.00;;;;;;4842076;29;20045;-72
2022/04/21 05:09:17;;;;;;;53.10;40.47;;;179.60;2201.60;;;;;;4842654;29;20022;-74
2022/04/21 05:11:48;;;;;;;52.33;39.55;;;179.60;2201.60;;;;;;4842517;29;20030;-73
2022/04/21 05:14:14;;;;;;;58.50;41.05;;;179.70;2201.60;;;;;;4842845;29;20033;-73
2022/04/21 05:16:40;;;;;;;52.90;40.53;;;179.70;2227.20;;;;;;4842105;29;20034;-74
2022/04/21 05:19:07;;;;;;;52.28;40.38;;;179.80;2227.20;;;;;;4842542;29;20418;-75
2022/04/21 05:21:34;;;;;;;53.15;38.88;;;179.80;2227.20;;;;;;4826070;29;20042;-70
2022/04/21 05:24:01;;;;;;;55.00;40.88;;;179.80;2227.20;;;;;;4842357;29;20033;-76
2022/04/21 05:26:31;;;;;;;56.30;41.35;;;180.00;2227.20;;;;;;4842008;29;20026;-75
2022/04/21 05:28:58;;;;;;;52.70;39.97;;;180.00;2227.20;;;;;;4842419;29;20385;-73
2022/04/21 05:31:28;;;;;;;58.60;40.53;;;180.10;2227.20;;;;;;4842459;29;20065;-62
2022/04/21 05:33:54;;;;;;;51.72;38.33;;;180.10;2227.20;;;;;;4842356;29;20025;-75
2022/04/21 05:36:21;;;;;;;56.45;39.47;;;204.80;2227.20;;;;;;4842006;29;20470;-75
2022/04/21 05:38:49;;;;;;;51.65;36.67;;;204.80;2227.20;;;;;;4842046;29;20133;-75
2022/04/21 05:41:16;;;;;;;49.50;37.30;;;204.90;2227.20;;;;;;4842259;29;20034;-75
2022/04/21 05:43:44;;;;;;;52.60;36.65;;;205.00;2227.20;;;;;;4842301;29;20041;-76
2022/04/21 05:46:12;;;;;;;53.90;39.50;;;205.00;2227.20;;;;;;4842516;29;20046;-75
2022/04/21 05:48:38;;;;;;;55.20;39.83;;;205.10;2201.60;;;;;;4842449;29;20388;-73
2022/04/21 05:51:05;;;;;;;57.25;39.83;;;205.20;2201.60;;;;;;4842473;29;20026;-74
2022/04/21 05:53:36;;;;;;;46.10;35.17;;;205.30;2201.60;;;;;;4842067;29;20061;-75
2022/04/21 05:56:04;;;;;;;63.05;37.40;;;205.40;2201.60;;;;;;4844838;29;20034;-74
2022/04/21 05:58:30;;;;;;;49.78;36.45;;;205.50;2201.60;;;;;;4850002;29;20049;-75
2022/04/21 06:00:57;;;;;;;46.63;34.00;;;205.60;2227.20;;;;;;4853785;29;20032;-72
2022/04/21 06:03:23;;;;;;;41.63;32.55;;;205.70;2201.60;;;;;;4854167;29;20086;-75
2022/04/21 06:05:49;;;;;;;43.38;30.60;;;205.70;2201.60;;;;;;4852316;29;20381;-75
2022/04/21 06:08:15;;;;;;;51.53;32.45;;;230.40;2201.60;;;;;;4845231;29;20032;-75
2022/04/21 06:10:41;;;;;;;42.92;32.40;;;230.50;2201.60;;;;;;4844904;29;20037;-76
2022/04/21 06:13:08;;;;;;;41.33;29.65;;;230.60;2201.60;;;;;;4845367;29;20077;-70
2022/04/21 06:15:34;;;;;;;147.60;37.13;;;230.70;2201.60;;;;;;4813595;29;20102;-81
2022/04/21 06:18:02;;;;;;;70.45;30.90;;;230.80;2176.00;;;;;;4845362;29;20042;-82
2022/04/21 06:20:28;;;;;;;39.80;29.85;;;230.90;2150.40;;;;;;4845359;29;20026;-80
2022/04/21 06:22:55;;;;;;;39.60;29.48;;;231.00;2150.40;;;;;;4844969;29;20354;-83
2022/04/21 06:25:21;;;;;;;48.20;32.55;;;231.00;2124.80;;;;;;4845388;29;20033;-81
2022/04/21 06:27:49;;;;;;;40.88;29.30;;;231.10;2150.40;;;;;;4845299;29;20030;-79
2022/04/21 06:30:16;;;;;;;39.85;27.98;;;231.30;2150.40;;;;;;4845187;29;20030;-74
2022/04/21 06:32:41;;;;;;;44.60;27.45;;;256.00;2099.20;;;;;;4844930;29;20030;-74
2022/04/21 06:35:10;;;;;;;66.03;28.05;;;256.20;2099.20;;;;;;4845837;29;20331;-61
2022/04/21 06:37:36;;;;;;;50.13;23.55;;;256.30;2099.20;;;;;;4844933;29;20057;-81
2022/04/21 06:40:03;;;;;;;46.72;22.33;;;256.40;2048.00;;;;;;4845003;29;20030;-76
2022/04/21 06:42:30;;;;;;;46.22;22.92;;;256.50;1971.20;;;;;;4828465;29;20037;-74
2022/04/21 06:50:24;;;;;;;28.45;21.40;;;256.90;1920.00;;;;;;4844794;29;20040;-64
2022/04/21 06:52:50;;;;;;;31.00;20.13;;;281.70;1920.00;;;;;;4844721;29;20033;-65
2022/04/21 06:55:15;;;;;;;25.23;20.77;;;281.90;1920.00;;;;;;4844739;29;20484;-64
2022/04/21 06:57:41;;;;;;;40.05;20.70;;;282.20;1945.60;;;;;;4844583;29;20041;-63
2022/04/21 07:00:09;;;;;;;24.75;19.23;;;282.40;1920.00;;;;;;4844626;29;20026;-63
2022/04/21 07:02:38;;;;;;;27.88;19.00;;;282.50;1843.20;;;;;;4844634;29;20060;-64
2022/04/21 07:05:11;;;;;;;40.10;22.15;;;307.20;1843.20;;;;;;4844226;29;20049;-63
2022/04/21 07:07:39;;;;;;;52.85;19.40;;;307.40;1920.00;;;;;;4844380;29;20389;-65
2022/04/21 07:10:06;;;;;;;51.78;21.42;;;307.50;1817.60;;;;;;4844391;29;20026;-64
2022/04/21 07:12:33;;;;;;;31.77;19.25;;;307.70;1817.60;;;;;;4827694;29;20384;-63
2022/04/21 07:15:04;;;;;;;263.13;30.75;;;307.80;1766.40;;;;;;4827847;29;20497;-64
2022/04/21 07:17:30;;;;;;;209.23;27.92;;;307.90;1715.20;;;;;;4827823;29;20148;-63
2022/04/21 07:19:56;;;;;;;50.72;18.10;;;308.10;1715.20;;;;;;4843846;29;20521;-62
2022/04/21 07:22:25;;;;;;;23.00;16.40;;;332.80;1715.20;;;;;;4851219;29;20037;-62
2022/04/21 07:24:55;;;;;;;22.98;16.92;;;332.90;1689.60;;;;;;4851654;29;20087;-62
2022/04/21 07:27:21;;;;;;;18.58;16.58;;;333.00;1689.60;;;;;;4848591;29;20026;-63
2022/04/21 07:29:48;;;;;;;17.88;13.90;;;333.10;1715.20;;;;;;4856622;29;20042;-62
2022/04/21 07:32:14;;;;;;;17.88;14.18;;;333.10;1561.60;;;;;;4862331;29;20073;-61
2022/04/21 07:34:39;;;;;;;17.35;14.82;;;333.40;1612.80;;;;;;4862619;29;20499;-61
2022/04/21 07:37:07;;;;;;;17.20;14.30;;;333.50;1612.80;;;;;;4862639;29;20075;-62
2022/04/21 07:39:32;;;;;;;17.02;13.98;;;333.60;1587.20;;;;;;4853635;29;20037;-61
2022/04/21 07:41:59;;;;;;;20.23;15.38;;;358.40;1561.60;;;;;;4852329;29;20075;-62
2022/04/21 07:44:26;;;;;;;18.50;14.65;;;358.40;1536.00;;;;;;4851129;29;20049;-61
2022/04/21 07:46:53;;;;;;;27.00;15.57;;;333.70;1510.40;;;;;;4844592;29;20034;-68
2022/04/21 07:54:48;;;;;;;21.10;15.40;;;358.50;1459.20;;;;;;4843869;29;20045;-64
2022/04/21 07:57:14;;;;;;;19.05;13.73;;;358.60;1484.80;;;;;;4843696;29;20121;-64
2022/04/21 07:59:40;;;;;;;20.80;13.82;;;358.80;1484.80;;;;;;4843347;29;20033;-65
2022/04/21 08:02:08;;;;;;;16.10;12.82;;;358.80;1433.60;;;;;;4843556;29;20034;-64
2022/04/21 08:04:34;;;;;;;15.98;12.80;;;358.80;1433.60;;;;;;4843346;29;20030;-64
2022/04/21 08:07:00;;;;;;;41.53;31.52;;;358.90;1433.60;;;;;;4826254;29;20034;-65
2022/04/21 08:09:26;;;;;;;31.60;16.65;;;358.90;1382.40;;;;;;4843266;29;20053;-63
2022/04/21 08:11:52;;;;;;;18.08;11.82;;;359.00;1382.40;;;;;;4843297;29;20112;-65
2022/04/21 08:14:17;;;;;;;18.60;11.48;;;359.10;1356.80;;;;;;4843341;29;20030;-67
2022/04/21 08:16:44;;;;;;;32.42;12.63;;;359.10;1382.40;;;;;;4842696;29;20049;-63
2022/04/21 08:19:10;;;;;;;15.40;12.40;;;359.30;1382.40;;;;;;4842982;29;20029;-63
2022/04/21 08:21:37;;;;;;;29.45;12.57;;;384.00;1356.80;;;;;;4843318;29;20031;-63
2022/04/21 08:32:33;;;;;;;28.00;11.03;;;384.70;1280.00;;;;;;4843097;29;20064;-65
2022/04/21 08:35:03;;;;;;;26.25;11.20;;;384.80;1254.40;;;;;;4842957;29;20053;-66
2022/04/21 08:37:33;;;;;;;17.30;11.15;;;409.60;1254.40;;;;;;4842529;29;20052;-73
2022/04/21 08:40:03;;;;;;;14.38;10.93;;;409.80;1228.80;;;;;;4843760;29;20037;-68
2022/04/21 08:42:31;;;;;;;10.48;8.82;;;410.00;1228.80;;;;;;4843057;29;20545;-72
2022/04/21 08:45:00;;;;;;;12.75;8.98;;;410.00;1152.00;;;;;;4842845;29;20042;-73
2022/04/21 08:47:28;;;;;;;14.95;9.82;;;409.90;1126.40;;;;;;4842986;29;20029;-71
2022/04/21 08:50:04;;;;;;;18.45;11.93;;;410.00;1152.00;;;;;;4842711;29;20030;-69
2022/04/21 08:52:32;;;;;;;14.68;11.65;;;410.00;1152.00;;;;;;4842602;29;20030;-67
2022/04/21 08:54:57;;;;;;;21.70;12.02;;;410.40;1177.60;;;;;;4826471;29;20381;-73
2022/04/21 08:57:23;;;;;;;31.58;11.10;;;435.20;1152.00;;;;;;4842748;29;20042;-65
2022/04/21 08:59:49;;;;;;;19.70;9.63;;;435.40;1126.40;;;;;;4842986;29;20053;-71
2022/04/21 09:02:18;;;;;;;22.60;9.05;;;435.70;1100.80;;;;;;4826538;29;20061;-72
2022/04/21 09:04:44;;;;;;;23.35;9.73;;;436.10;998.40;;;;;;4842453;29;20029;-77
2022/04/21 09:07:16;;;;;;;14.15;11.02;;;436.00;1024.00;;;;;;4826303;29;20366;-72
2022/04/21 09:10:02;;;;;;;84.45;13.00;;;460.80;1075.20;;;;;;4842475;29;20038;-71
2022/04/21 09:12:28;;;;;;;21.85;10.55;;;435.70;1075.20;;;;;;4843037;29;20458;-73
2022/04/21 09:14:54;;;;;;;28.98;21.73;;;435.90;1100.80;;;;;;4842457;29;20030;-76
2022/04/21 09:17:20;;;;;;;35.65;24.80;;;435.80;1126.40;;;;;;4842614;29;20370;-70
2022/04/21 09:20:00;;;;;;;43.38;28.33;;;436.00;1126.40;;;;;;4842367;29;20354;-75
2022/04/21 09:22:31;;;;;;;128.75;98.72;;;460.90;1100.80;;;;;;4842572;29;20429;-72
2022/04/21 09:24:58;;;;;;;19.20;16.42;;;460.90;1100.80;;;;;;4826272;29;20030;-74
2022/04/21 09:27:24;;;;;;;11.65;8.93;;;461.00;1075.20;;;;;;4825893;29;20121;-68
2022/04/21 09:29:56;;;;;;;17.67;8.02;;;461.10;1049.60;;;;;;4845034;29;20068;-64
2022/04/21 09:32:22;;;;;;;19.15;9.43;;;461.10;1024.00;;;;;;4846066;29;20053;-66
2022/04/21 09:34:51;;;;;;;24.90;7.63;;;461.20;1024.00;;;;;;4845874;29;20030;-72
2022/04/21 09:37:20;;;;;;;13.40;7.40;;;461.00;1024.00;;;;;;4845596;29;20061;-76
2022/04/21 09:39:50;;;;;;;7.72;6.88;;;461.20;1024.00;;;;;;4845866;29;20058;-70
2022/04/21 09:42:27;;;;;;;7.15;6.40;;;461.40;998.40;;;;;;4846110;29;20038;-70
2022/04/21 09:47:47;;;;;;;7.72;6.15;;;486.40;947.20;;;;;;4846334;29;20169;-66
2022/04/21 09:50:14;;;;;;;9.60;6.95;;;461.60;947.20;;;;;;4844828;29;20128;-66
2022/04/21 09:52:51;;;;;;;10.43;6.95;;;461.30;972.80;;;;;;4845753;29;20114;-66
2022/04/21 09:55:20;;;;;;;6.97;6.32;;;461.30;947.20;;;;;;4845739;29;20369;-65
2022/04/21 09:57:46;;;;;;;7.55;6.65;;;461.20;998.40;;;;;;4845250;29;20038;-77
2022/04/21 10:00:12;;;;;;;16.05;6.80;;;461.30;972.80;;;;;;4844926;29;20053;-67
2022/04/21 10:02:38;;;;;;;18.83;7.63;;;461.20;972.80;;;;;;4845474;29;20385;-71
2022/04/21 10:05:05;;;;;;;11.63;6.68;;;461.40;947.20;;;;;;4845288;29;20034;-70
2022/04/21 10:07:33;;;;;;;8.35;6.10;;;461.60;921.60;;;;;;4845231;29;20037;-72
2022/04/21 10:09:59;;;;;;;13.63;7.10;;;486.40;947.20;;;;;;4845471;29;20058;-72
2022/04/21 10:12:25;;;;;;;10.88;6.55;;;486.60;947.20;;;;;;4844850;29;20033;-70
2022/04/21 10:14:52;;;;;;;10.63;6.18;;;486.70;947.20;;;;;;4828622;29;20034;-67
2022/04/21 10:17:17;;;;;;;15.48;6.78;;;486.60;921.60;;;;;;4828537;29;20038;-66
2022/04/21 10:19:48;;;;;;;15.57;6.90;;;486.80;921.60;;;;;;4845191;29;20090;-67
2022/04/21 10:22:15;;;;;;;28.85;19.70;;;487.10;921.60;;;;;;4845030;29;20041;-75
2022/04/21 10:24:41;;;;;;;19.52;14.65;;;487.30;896.00;;;;;;4844878;29;20038;-69
2022/04/21 10:27:44;;;;;;;42.80;27.73;;;487.30;896.00;;;;;;4844774;29;20026;-73
2022/04/21 10:30:14;;;;;;;63.22;35.47;;;512.20;870.40;;;;;;4844882;29;20034;-66
2022/04/21 10:33:01;;;;;;;19.92;9.90;;;512.30;844.80;;;;;;4844913;29;20037;-70
2022/04/21 10:35:34;;;;;;;12.38;6.68;;;512.20;870.40;;;;;;4844929;29;20090;-67
2022/04/21 10:38:14;;;;;;;32.47;10.10;;;512.30;870.40;;;;;;4852532;29;20041;-67
2022/04/21 10:41:10;;;;;;;21.50;8.05;;;512.20;870.40;;;;;;4844079;29;20030;-66
2022/04/21 10:44:02;;;;;;;12.85;6.95;;;512.30;844.80;;;;;;4828025;29;20042;-69
2022/04/21 10:46:29;;;;;;;13.32;5.93;;;512.30;844.80;;;;;;4788718;30;20143;-69
2022/04/21 10:48:56;;;;;;;15.18;5.97;;;512.20;870.40;;;;;;4788516;30;20035;-68
2022/04/21 10:57:12;;;;;;;22.75;6.32;;;512.00;870.40;;;;;;4788377;30;20054;-76
2022/04/21 10:57:33;;;;;;;36.17;6.57;;;512.20;870.40;;;;;;4787901;30;20063;-76
2022/04/21 11:00:03;;;;;;;11.95;5.18;;;512.40;870.40;;;;;;4787633;30;20487;-66
2022/04/21 11:02:38;;;;;;;8.90;5.93;;;512.40;844.80;;;;;;4788090;30;20035;-67
2022/04/21 11:05:27;;;;;;;11.98;5.20;;;512.80;844.80;;;;;;4788113;30;20047;-68
2022/04/21 11:07:54;;;;;;;26.50;5.75;;;512.90;870.40;;;;;;4787842;30;20043;-65
2022/04/21 11:10:38;;;;;;;46.20;8.10;;;537.60;844.80;;;;;;4787877;30;20043;-64
2022/04/21 11:13:09;;;;;;;8.43;6.40;;;537.70;870.40;;;;;;4787898;30;20100;-66
2022/04/21 11:15:49;;;;;;;80.63;56.60;;;537.60;844.80;;;;;;4787148;30;20139;-72
2022/04/21 11:18:20;;;;;;;30.15;12.50;;;537.70;870.40;;;;;;4785533;30;20553;-68
2022/04/21 11:20:48;;;;;;;27.17;11.07;;;538.00;844.80;;;;;;4787868;30;20039;-66
2022/04/21 11:23:24;;;;;;;7.18;6.35;;;537.70;844.80;;;;;;4811928;29;20033;-63
2022/04/21 11:26:01;;;;;;;26.48;5.90;;;537.80;844.80;;;;;;4844266;29;20426;-62
2022/04/21 11:28:26;;;;;;;11.60;5.90;;;537.60;844.80;;;;;;4845871;29;20102;-70
2022/04/21 11:30:57;;;;;;;33.78;28.40;;;512.90;870.40;;;;;;4843046;29;20500;-70
2022/04/21 11:33:23;;;;;;;51.05;37.75;;;512.90;844.80;;;;;;4843781;29;20038;-65
2022/04/21 11:35:48;;;;;;;75.82;57.85;;;512.80;870.40;;;;;;4843833;29;20078;-69
2022/04/21 11:38:14;;;;;;;17.88;11.50;;;537.60;921.60;;;;;;4844216;29;20037;-73
2022/04/21 11:40:40;;;;;;;21.42;6.32;;;512.90;870.40;;;;;;4843711;29;20477;-65
2022/04/21 11:43:22;;;;;;;7.70;6.07;;;537.70;870.40;;;;;;4843937;29;20045;-63
2022/04/21 11:46:14;;;;;;;38.38;6.43;;;537.80;844.80;;;;;;4843825;29;20101;-62
2022/04/21 11:48:41;;;;;;;17.27;6.07;;;537.80;844.80;;;;;;4824915;29;20064;-65
2022/04/21 11:51:12;;;;;;;238.48;17.00;;;537.70;844.80;;;;;;4843523;29;20491;-65
2022/04/21 11:53:42;;;;;;;15.60;5.65;;;537.70;844.80;;;;;;4843634;29;20034;-66
2022/04/21 11:56:10;;;;;;;16.13;5.90;;;537.70;870.40;;;;;;4843400;29;20034;-68
2022/04/21 11:58:43;;;;;;;30.67;21.92;;;537.90;819.20;;;;;;4843492;29;20045;-66
2022/04/21 12:06:50;;;;;;;20.63;10.05;;;537.70;819.20;;;;;;4843528;29;20125;-68
2022/04/21 12:09:24;;;;;;;10.73;6.75;;;512.80;819.20;;;;;;4843351;29;20489;-65
2022/04/21 12:11:53;;;;;;;12.27;5.30;;;537.70;844.80;;;;;;4843075;29;20073;-64
2022/04/21 12:14:19;;;;;;;16.30;5.35;;;537.70;819.20;;;;;;4843101;29;20269;-67
2022/04/21 12:16:53;;;;;;;8.95;4.80;;;537.70;819.20;;;;;;4842914;29;20041;-64
2022/04/21 12:19:44;;;;;;;12.57;4.93;;;537.60;819.20;;;;;;4843245;29;20029;-66
2022/04/21 12:22:20;;;;;;;24.00;6.35;;;537.90;793.60;;;;;;4843040;29;20393;-65
2022/04/21 12:24:56;;;;;;;10.85;5.78;;;537.80;793.60;;;;;;4843142;29;20109;-64
2022/04/21 12:27:34;;;;;;;85.85;8.25;;;537.70;793.60;;;;;;4826777;29;20133;-65
2022/04/21 12:30:01;;;;;;;15.18;5.13;;;537.70;819.20;;;;;;4842942;29;20029;-66
2022/04/21 12:32:41;;;;;;;14.85;4.82;;;537.60;793.60;;;;;;4842896;29;20030;-63
2022/04/21 12:35:09;;;;;;;57.33;31.48;;;512.80;768.00;;;;;;4843281;29;20026;-60
2022/04/21 12:38:50;;;;;;;7.40;4.57;;;512.80;793.60;;;;;;4842797;29;20117;-64
2022/04/21 12:40:36;;;;;;;42.22;26.45;;;512.50;819.20;;;;;;4842908;29;20026;-65
2022/04/21 12:43:02;;;;;;;40.40;28.27;;;512.70;819.20;;;;;;4842958;29;20041;-67
2022/04/21 12:45:28;;;;;;;19.63;10.38;;;512.50;844.80;;;;;;4843014;29;20112;-67
2022/04/21 12:47:54;;;;;;;20.02;7.40;;;512.70;793.60;;;;;;4842578;29;20125;-71
2022/04/21 12:50:23;;;;;;;12.07;6.32;;;512.70;793.60;;;;;;4842829;29;20113;-67
2022/04/21 12:52:50;;;;;;;16.50;5.60;;;512.80;793.60;;;;;;4842830;29;20041;-65
2022/04/21 12:55:22;;;;;;;34.58;6.45;;;512.70;793.60;;;;;;4842925;29;20034;-65
2022/04/21 12:58:07;;;;;;;30.55;5.80;;;537.60;819.20;;;;;;4826399;29;20473;-65
2022/04/21 13:00:35;;;;;;;14.10;5.03;;;537.70;819.20;;;;;;4842618;29;20041;-67
2022/04/21 13:03:02;;;;;;;13.02;4.22;;;512.80;793.60;;;;;;4826510;29;20034;-64
2022/04/21 13:05:38;;;;;;;;;;;;;;;;;;;;;